sensor_id;sensor_type;location;lat;lon;timestamp;P1;durP1;ratioP1;P2;durP2;ratioP2
4563;SDS011;2294;51.818;8.484;2023-01-19T00:02:22;5.80;;;3.53;;
4563;SDS011;2294;51.818;8.484;2023-01-19T00:04:49;7.00;;;4.37;;
4563;SDS011;2294;51.818;8.484;2023-01-19T00:07:16;9.53;;;5.73;;
4563;SDS011;2294;51.818;8.484;2023-01-19T00:09:43;9.50;;;5.87;;
4563;SDS011;2294;51.818;8.484;2023-01-19T00:12:11;12.73;;;6.27;;
4563;SDS011;2294;51.818;8.484;2023-01-19T00:14:38;6.07;;;4.83;;
4563;SDS011;2294;51.818;8.484;2023-01-19T00:17:05;9.77;;;5.80;;
4563;SDS011;2294;51.818;8.484;2023-01-19T00:19:32;10.50;;;5.53;;
4563;SDS011;2294;51.818;8.484;2023-01-19T00:21:59;13.87;;;5.83;;
4563;SDS011;2294;51.818;8.484;2023-01-19T00:24:26;12.50;;;5.47;;
4563;SDS011;2294;51.818;8.484;2023-01-19T00:26:52;8.80;;;5.20;;
4563;SDS011;2294;51.818;8.484;2023-01-19T00:29:21;11.63;;;5.57;;
4563;SDS011;2294;51.818;8.484;2023-01-19T00:31:48;9.20;;;5.97;;
4563;SDS011;2294;51.818;8.484;2023-01-19T00:34:15;14.53;;;6.07;;
4563;SDS011;2294;51.818;8.484;2023-01-19T00:36:42;7.30;;;5.20;;
4563;SDS011;2294;51.818;8.484;2023-01-19T00:39:09;12.17;;;6.80;;
4563;SDS011;2294;51.818;8.484;2023-01-19T00:41:36;12.20;;;5.80;;
4563;SDS011;2294;51.818;8.484;2023-01-19T00:44:22;10.63;;;5.40;;
4563;SDS011;2294;51.818;8.484;2023-01-19T00:46:49;7.37;;;5.20;;
4563;SDS011;2294;51.818;8.484;2023-01-19T00:49:16;9.90;;;5.97;;
4563;SDS011;2294;51.818;8.484;2023-01-19T00:51:43;16.60;;;6.20;;
4563;SDS011;2294;51.818;8.484;2023-01-19T00:54:10;8.53;;;5.47;;
4563;SDS011;2294;51.818;8.484;2023-01-19T00:56:36;12.03;;;6.70;;
4563;SDS011;2294;51.818;8.484;2023-01-19T00:59:03;13.30;;;6.27;;
4563;SDS011;2294;51.818;8.484;2023-01-19T01:01:31;10.17;;;6.17;;
4563;SDS011;2294;51.818;8.484;2023-01-19T01:03:58;11.23;;;6.17;;
4563;SDS011;2294;51.818;8.484;2023-01-19T01:06:25;11.10;;;6.50;;
4563;SDS011;2294;51.818;8.484;2023-01-19T01:08:52;11.73;;;6.80;;
4563;SDS011;2294;51.818;8.484;2023-01-19T01:11:19;11.87;;;6.90;;
4563;SDS011;2294;51.818;8.484;2023-01-19T01:13:46;10.43;;;6.67;;
4563;SDS011;2294;51.818;8.484;2023-01-19T01:16:13;16.33;;;6.30;;
4563;SDS011;2294;51.818;8.484;2023-01-19T01:18:41;9.73;;;6.07;;
4563;SDS011;2294;51.818;8.484;2023-01-19T01:21:09;6.73;;;4.20;;
4563;SDS011;2294;51.818;8.484;2023-01-19T01:23:37;18.50;;;7.10;;
4563;SDS011;2294;51.818;8.484;2023-01-19T01:26:04;9.27;;;5.90;;
4563;SDS011;2294;51.818;8.484;2023-01-19T01:28:31;9.33;;;6.23;;
4563;SDS011;2294;51.818;8.484;2023-01-19T01:30:58;10.27;;;6.20;;
4563;SDS011;2294;51.818;8.484;2023-01-19T01:33:25;11.97;;;7.20;;
4563;SDS011;2294;51.818;8.484;2023-01-19T01:35:53;11.40;;;6.77;;
4563;SDS011;2294;51.818;8.484;2023-01-19T01:38:20;11.27;;;6.90;;
4563;SDS011;2294;51.818;8.484;2023-01-19T01:40:47;10.00;;;6.87;;
4563;SDS011;2294;51.818;8.484;2023-01-19T01:43:14;13.23;;;8.07;;
4563;SDS011;2294;51.818;8.484;2023-01-19T01:45:43;8.73;;;5.70;;
4563;SDS011;2294;51.818;8.484;2023-01-19T01:48:11;10.97;;;6.67;;
4563;SDS011;2294;51.818;8.484;2023-01-19T01:50:43;9.93;;;6.60;;
4563;SDS011;2294;51.818;8.484;2023-01-19T01:53:28;9.90;;;6.30;;
4563;SDS011;2294;51.818;8.484;2023-01-19T01:55:58;10.63;;;6.40;;
4563;SDS011;2294;51.818;8.484;2023-01-19T01:58:25;11.13;;;6.87;;
4563;SDS011;2294;51.818;8.484;2023-01-19T02:00:52;11.43;;;5.80;;
4563;SDS011;2294;51.818;8.484;2023-01-19T02:03:37;5.40;;;4.87;;
4563;SDS011;2294;51.818;8.484;2023-01-19T02:06:04;17.53;;;8.10;;
4563;SDS011;2294;51.818;8.484;2023-01-19T02:08:36;9.63;;;6.70;;
4563;SDS011;2294;51.818;8.484;2023-01-19T02:11:24;10.70;;;7.43;;
4563;SDS011;2294;51.818;8.484;2023-01-19T02:14:09;10.47;;;6.03;;
4563;SDS011;2294;51.818;8.484;2023-01-19T02:16:35;10.57;;;6.10;;
4563;SDS011;2294;51.818;8.484;2023-01-19T02:19:03;9.83;;;5.10;;
4563;SDS011;2294;51.818;8.484;2023-01-19T02:21:33;13.40;;;7.70;;
4563;SDS011;2294;51.818;8.484;2023-01-19T02:24:05;13.93;;;6.97;;
4563;SDS011;2294;51.818;8.484;2023-01-19T02:26:33;7.20;;;4.73;;
4563;SDS011;2294;51.818;8.484;2023-01-19T02:29:03;10.57;;;6.73;;
4563;SDS011;2294;51.818;8.484;2023-01-19T02:31:37;8.73;;;5.60;;
4563;SDS011;2294;51.818;8.484;2023-01-19T02:34:06;10.77;;;7.20;;
4563;SDS011;2294;51.818;8.484;2023-01-19T02:36:36;11.40;;;6.77;;
4563;SDS011;2294;51.818;8.484;2023-01-19T02:39:07;9.87;;;6.47;;
4563;SDS011;2294;51.818;8.484;2023-01-19T02:41:37;9.93;;;6.30;;
4563;SDS011;2294;51.818;8.484;2023-01-19T02:44:07;10.80;;;7.10;;
4563;SDS011;2294;51.818;8.484;2023-01-19T02:46:36;12.30;;;6.90;;
4563;SDS011;2294;51.818;8.484;2023-01-19T02:49:05;18.97;;;8.30;;
4563;SDS011;2294;51.818;8.484;2023-01-19T02:51:31;14.10;;;7.10;;
4563;SDS011;2294;51.818;8.484;2023-01-19T02:57:10;7.00;;;3.80;;
4563;SDS011;2294;51.818;8.484;2023-01-19T02:59:57;11.50;;;7.90;;
4563;SDS011;2294;51.818;8.484;2023-01-19T03:02:35;8.10;;;5.80;;
4563;SDS011;2294;51.818;8.484;2023-01-19T03:05:25;11.70;;;7.07;;
4563;SDS011;2294;51.818;8.484;2023-01-19T03:08:02;16.10;;;6.23;;
4563;SDS011;2294;51.818;8.484;2023-01-19T03:10:37;10.20;;;6.73;;
4563;SDS011;2294;51.818;8.484;2023-01-19T03:13:11;13.10;;;7.90;;
4563;SDS011;2294;51.818;8.484;2023-01-19T03:15:42;15.10;;;7.27;;
4563;SDS011;2294;51.818;8.484;2023-01-19T03:18:13;10.20;;;6.77;;
4563;SDS011;2294;51.818;8.484;2023-01-19T03:20:45;9.37;;;6.43;;
4563;SDS011;2294;51.818;8.484;2023-01-19T03:23:14;11.10;;;7.00;;
4563;SDS011;2294;51.818;8.484;2023-01-19T03:25:44;9.63;;;6.73;;
4563;SDS011;2294;51.818;8.484;2023-01-19T03:28:13;8.23;;;3.83;;
4563;SDS011;2294;51.818;8.484;2023-01-19T03:30:44;10.80;;;7.60;;
4563;SDS011;2294;51.818;8.484;2023-01-19T03:33:20;11.87;;;5.90;;
4563;SDS011;2294;51.818;8.484;2023-01-19T03:35:52;13.13;;;6.30;;
4563;SDS011;2294;51.818;8.484;2023-01-19T03:38:25;13.30;;;7.10;;
4563;SDS011;2294;51.818;8.484;2023-01-19T03:40:57;10.30;;;6.17;;
4563;SDS011;2294;51.818;8.484;2023-01-19T03:43:27;8.43;;;4.60;;
4563;SDS011;2294;51.818;8.484;2023-01-19T03:45:55;13.20;;;7.00;;
4563;SDS011;2294;51.818;8.484;2023-01-19T03:48:23;9.27;;;6.30;;
4563;SDS011;2294;51.818;8.484;2023-01-19T03:50:50;10.60;;;6.90;;
4563;SDS011;2294;51.818;8.484;2023-01-19T03:53:19;7.73;;;5.77;;
4563;SDS011;2294;51.818;8.484;2023-01-19T03:55:47;10.30;;;6.00;;
4563;SDS011;2294;51.818;8.484;2023-01-19T03:58:17;7.73;;;5.87;;
4563;SDS011;2294;51.818;8.484;2023-01-19T04:00:44;10.23;;;5.57;;
4563;SDS011;2294;51.818;8.484;2023-01-19T04:03:12;7.53;;;5.50;;
4563;SDS011;2294;51.818;8.484;2023-01-19T04:05:40;10.10;;;6.90;;
4563;SDS011;2294;51.818;8.484;2023-01-19T04:08:07;6.60;;;3.97;;
4563;SDS011;2294;51.818;8.484;2023-01-19T04:10:34;9.53;;;4.87;;
4563;SDS011;2294;51.818;8.484;2023-01-19T04:13:01;9.30;;;6.47;;
4563;SDS011;2294;51.818;8.484;2023-01-19T04:15:30;7.70;;;5.40;;
4563;SDS011;2294;51.818;8.484;2023-01-19T04:17:58;7.43;;;5.17;;
4563;SDS011;2294;51.818;8.484;2023-01-19T04:20:26;12.50;;;5.13;;
4563;SDS011;2294;51.818;8.484;2023-01-19T04:22:53;8.10;;;5.10;;
4563;SDS011;2294;51.818;8.484;2023-01-19T04:25:21;6.27;;;5.00;;
4563;SDS011;2294;51.818;8.484;2023-01-19T04:27:50;10.00;;;5.47;;
4563;SDS011;2294;51.818;8.484;2023-01-19T04:30:17;9.67;;;5.40;;
4563;SDS011;2294;51.818;8.484;2023-01-19T04:32:45;6.40;;;4.37;;
4563;SDS011;2294;51.818;8.484;2023-01-19T04:35:12;5.80;;;4.47;;
4563;SDS011;2294;51.818;8.484;2023-01-19T04:37:40;12.77;;;7.00;;
4563;SDS011;2294;51.818;8.484;2023-01-19T04:40:07;14.77;;;6.33;;
4563;SDS011;2294;51.818;8.484;2023-01-19T04:42:35;12.17;;;6.00;;
4563;SDS011;2294;51.818;8.484;2023-01-19T04:45:02;12.33;;;5.80;;
4563;SDS011;2294;51.818;8.484;2023-01-19T04:47:29;6.10;;;3.80;;
4563;SDS011;2294;51.818;8.484;2023-01-19T04:49:57;10.63;;;5.60;;
4563;SDS011;2294;51.818;8.484;2023-01-19T04:52:24;10.63;;;5.67;;
4563;SDS011;2294;51.818;8.484;2023-01-19T04:54:58;10.27;;;5.13;;
4563;SDS011;2294;51.818;8.484;2023-01-19T04:57:25;8.50;;;5.40;;
4563;SDS011;2294;51.818;8.484;2023-01-19T04:59:52;13.97;;;5.93;;
4563;SDS011;2294;51.818;8.484;2023-01-19T05:02:19;9.90;;;5.50;;
4563;SDS011;2294;51.818;8.484;2023-01-19T05:04:46;9.63;;;6.10;;
4563;SDS011;2294;51.818;8.484;2023-01-19T05:07:15;12.50;;;5.90;;
4563;SDS011;2294;51.818;8.484;2023-01-19T05:09:42;12.70;;;5.80;;
4563;SDS011;2294;51.818;8.484;2023-01-19T05:12:09;6.90;;;4.87;;
4563;SDS011;2294;51.818;8.484;2023-01-19T05:14:36;7.07;;;5.37;;
4563;SDS011;2294;51.818;8.484;2023-01-19T05:17:03;10.33;;;5.07;;
4563;SDS011;2294;51.818;8.484;2023-01-19T05:19:30;15.40;;;6.80;;
4563;SDS011;2294;51.818;8.484;2023-01-19T05:21:57;14.27;;;5.63;;
4563;SDS011;2294;51.818;8.484;2023-01-19T05:24:25;8.37;;;5.10;;
4563;SDS011;2294;51.818;8.484;2023-01-19T05:26:52;8.70;;;5.67;;
4563;SDS011;2294;51.818;8.484;2023-01-19T05:29:19;7.20;;;4.10;;
4563;SDS011;2294;51.818;8.484;2023-01-19T05:31:46;12.97;;;6.70;;
4563;SDS011;2294;51.818;8.484;2023-01-19T05:34:13;9.00;;;5.70;;
4563;SDS011;2294;51.818;8.484;2023-01-19T05:36:40;7.80;;;5.17;;
4563;SDS011;2294;51.818;8.484;2023-01-19T05:39:07;12.93;;;5.57;;
4563;SDS011;2294;51.818;8.484;2023-01-19T05:41:36;8.13;;;5.77;;
4563;SDS011;2294;51.818;8.484;2023-01-19T05:44:03;5.30;;;3.37;;
4563;SDS011;2294;51.818;8.484;2023-01-19T05:46:29;6.17;;;4.03;;
4563;SDS011;2294;51.818;8.484;2023-01-19T05:48:58;11.37;;;4.90;;
4563;SDS011;2294;51.818;8.484;2023-01-19T05:51:25;9.70;;;5.67;;
4563;SDS011;2294;51.818;8.484;2023-01-19T05:53:58;3.97;;;3.40;;
4563;SDS011;2294;51.818;8.484;2023-01-19T05:56:26;9.83;;;4.47;;
4563;SDS011;2294;51.818;8.484;2023-01-19T05:58:54;6.10;;;4.80;;
4563;SDS011;2294;51.818;8.484;2023-01-19T06:01:21;9.73;;;5.30;;
4563;SDS011;2294;51.818;8.484;2023-01-19T06:03:48;9.60;;;5.13;;
4563;SDS011;2294;51.818;8.484;2023-01-19T06:06:15;7.47;;;4.60;;
4563;SDS011;2294;51.818;8.484;2023-01-19T06:08:42;9.80;;;5.23;;
4563;SDS011;2294;51.818;8.484;2023-01-19T06:11:09;8.10;;;5.67;;
4563;SDS011;2294;51.818;8.484;2023-01-19T06:13:37;8.10;;;5.60;;
4563;SDS011;2294;51.818;8.484;2023-01-19T06:16:06;9.40;;;5.80;;
4563;SDS011;2294;51.818;8.484;2023-01-19T06:18:34;8.70;;;5.30;;
4563;SDS011;2294;51.818;8.484;2023-01-19T06:21:02;9.50;;;4.83;;
4563;SDS011;2294;51.818;8.484;2023-01-19T06:23:30;11.07;;;4.87;;
4563;SDS011;2294;51.818;8.484;2023-01-19T06:25:57;7.60;;;5.00;;
4563;SDS011;2294;51.818;8.484;2023-01-19T06:28:24;5.10;;;3.90;;
4563;SDS011;2294;51.818;8.484;2023-01-19T06:30:52;7.50;;;4.30;;
4563;SDS011;2294;51.818;8.484;2023-01-19T06:33:21;9.10;;;5.43;;
4563;SDS011;2294;51.818;8.484;2023-01-19T06:35:49;6.67;;;4.83;;
4563;SDS011;2294;51.818;8.484;2023-01-19T06:38:17;6.23;;;4.50;;
4563;SDS011;2294;51.818;8.484;2023-01-19T06:40:45;8.00;;;3.90;;
4563;SDS011;2294;51.818;8.484;2023-01-19T06:43:18;6.43;;;4.00;;
4563;SDS011;2294;51.818;8.484;2023-01-19T06:45:45;6.73;;;4.67;;
4563;SDS011;2294;51.818;8.484;2023-01-19T06:48:12;4.07;;;3.27;;
4563;SDS011;2294;51.818;8.484;2023-01-19T06:50:43;4.57;;;3.73;;
4563;SDS011;2294;51.818;8.484;2023-01-19T06:53:10;4.80;;;3.90;;
4563;SDS011;2294;51.818;8.484;2023-01-19T06:55:37;4.47;;;4.07;;
4563;SDS011;2294;51.818;8.484;2023-01-19T06:58:04;5.13;;;3.90;;
4563;SDS011;2294;51.818;8.484;2023-01-19T07:00:31;4.90;;;3.67;;
4563;SDS011;2294;51.818;8.484;2023-01-19T07:02:58;4.80;;;3.93;;
4563;SDS011;2294;51.818;8.484;2023-01-19T07:05:25;5.07;;;3.60;;
4563;SDS011;2294;51.818;8.484;2023-01-19T07:07:53;10.80;;;4.37;;
4563;SDS011;2294;51.818;8.484;2023-01-19T07:10:22;5.37;;;3.43;;
4563;SDS011;2294;51.818;8.484;2023-01-19T07:12:49;5.10;;;3.40;;
4563;SDS011;2294;51.818;8.484;2023-01-19T07:15:17;4.90;;;3.33;;
4563;SDS011;2294;51.818;8.484;2023-01-19T07:17:46;6.70;;;3.33;;
4563;SDS011;2294;51.818;8.484;2023-01-19T07:20:14;9.23;;;4.40;;
4563;SDS011;2294;51.818;8.484;2023-01-19T07:22:41;17.40;;;3.87;;
4563;SDS011;2294;51.818;8.484;2023-01-19T07:25:11;6.13;;;4.20;;
4563;SDS011;2294;51.818;8.484;2023-01-19T07:27:38;4.20;;;3.77;;
4563;SDS011;2294;51.818;8.484;2023-01-19T07:30:05;7.90;;;4.47;;
4563;SDS011;2294;51.818;8.484;2023-01-19T07:32:34;9.03;;;5.67;;
4563;SDS011;2294;51.818;8.484;2023-01-19T07:35:01;5.60;;;4.03;;
4563;SDS011;2294;51.818;8.484;2023-01-19T07:37:28;8.10;;;4.60;;
4563;SDS011;2294;51.818;8.484;2023-01-19T07:39:55;6.07;;;2.90;;
4563;SDS011;2294;51.818;8.484;2023-01-19T07:42:23;3.33;;;3.03;;
4563;SDS011;2294;51.818;8.484;2023-01-19T07:44:50;5.67;;;4.07;;
4563;SDS011;2294;51.818;8.484;2023-01-19T07:47:17;5.20;;;3.07;;
4563;SDS011;2294;51.818;8.484;2023-01-19T07:49:43;3.60;;;3.20;;
4563;SDS011;2294;51.818;8.484;2023-01-19T07:52:10;4.40;;;3.50;;
4563;SDS011;2294;51.818;8.484;2023-01-19T07:54:37;3.80;;;3.40;;
4563;SDS011;2294;51.818;8.484;2023-01-19T07:57:04;5.90;;;3.83;;
4563;SDS011;2294;51.818;8.484;2023-01-19T07:59:32;5.20;;;3.23;;
4563;SDS011;2294;51.818;8.484;2023-01-19T08:01:59;7.60;;;3.73;;
4563;SDS011;2294;51.818;8.484;2023-01-19T08:04:26;7.27;;;2.60;;
4563;SDS011;2294;51.818;8.484;2023-01-19T08:06:54;5.10;;;3.20;;
4563;SDS011;2294;51.818;8.484;2023-01-19T08:09:21;6.10;;;3.67;;
4563;SDS011;2294;51.818;8.484;2023-01-19T08:11:48;2.57;;;2.37;;
4563;SDS011;2294;51.818;8.484;2023-01-19T08:14:15;3.90;;;3.27;;
4563;SDS011;2294;51.818;8.484;2023-01-19T08:16:43;5.30;;;3.80;;
4563;SDS011;2294;51.818;8.484;2023-01-19T08:19:10;3.90;;;3.30;;
4563;SDS011;2294;51.818;8.484;2023-01-19T08:21:37;3.77;;;3.33;;
4563;SDS011;2294;51.818;8.484;2023-01-19T08:24:05;5.00;;;3.67;;
4563;SDS011;2294;51.818;8.484;2023-01-19T08:26:42;3.10;;;2.50;;
4563;SDS011;2294;51.818;8.484;2023-01-19T08:29:09;2.30;;;2.10;;
4563;SDS011;2294;51.818;8.484;2023-01-19T08:31:36;4.90;;;2.80;;
4563;SDS011;2294;51.818;8.484;2023-01-19T08:34:04;5.37;;;3.53;;
4563;SDS011;2294;51.818;8.484;2023-01-19T08:36:31;4.07;;;3.37;;
4563;SDS011;2294;51.818;8.484;2023-01-19T08:38:58;3.73;;;3.00;;
4563;SDS011;2294;51.818;8.484;2023-01-19T08:41:25;6.07;;;3.93;;
4563;SDS011;2294;51.818;8.484;2023-01-19T08:43:52;5.10;;;4.23;;
4563;SDS011;2294;51.818;8.484;2023-01-19T08:46:19;4.07;;;3.60;;
4563;SDS011;2294;51.818;8.484;2023-01-19T08:48:46;3.17;;;2.20;;
4563;SDS011;2294;51.818;8.484;2023-01-19T08:51:14;3.20;;;2.93;;
4563;SDS011;2294;51.818;8.484;2023-01-19T08:53:42;3.53;;;2.80;;
4563;SDS011;2294;51.818;8.484;2023-01-19T08:56:09;3.40;;;2.90;;
4563;SDS011;2294;51.818;8.484;2023-01-19T08:58:38;3.10;;;2.80;;
4563;SDS011;2294;51.818;8.484;2023-01-19T09:01:05;5.13;;;3.53;;
4563;SDS011;2294;51.818;8.484;2023-01-19T09:03:32;5.17;;;3.53;;
4563;SDS011;2294;51.818;8.484;2023-01-19T09:06:00;3.80;;;3.07;;
4563;SDS011;2294;51.818;8.484;2023-01-19T09:08:28;5.10;;;2.50;;
4563;SDS011;2294;51.818;8.484;2023-01-19T09:10:55;3.90;;;3.23;;
4563;SDS011;2294;51.818;8.484;2023-01-19T09:13:22;4.30;;;3.30;;
4563;SDS011;2294;51.818;8.484;2023-01-19T09:15:49;3.63;;;3.27;;
4563;SDS011;2294;51.818;8.484;2023-01-19T09:18:18;3.57;;;3.27;;
4563;SDS011;2294;51.818;8.484;2023-01-19T09:20:46;3.00;;;2.77;;
4563;SDS011;2294;51.818;8.484;2023-01-19T09:23:15;2.83;;;2.63;;
4563;SDS011;2294;51.818;8.484;2023-01-19T09:29:07;2.47;;;2.27;;
4563;SDS011;2294;51.818;8.484;2023-01-19T09:31:34;3.60;;;2.60;;
4563;SDS011;2294;51.818;8.484;2023-01-19T09:34:02;5.50;;;3.97;;
4563;SDS011;2294;51.818;8.484;2023-01-19T09:36:29;4.03;;;3.53;;
4563;SDS011;2294;51.818;8.484;2023-01-19T09:38:56;14.20;;;6.87;;
4563;SDS011;2294;51.818;8.484;2023-01-19T09:41:23;11.23;;;8.17;;
4563;SDS011;2294;51.818;8.484;2023-01-19T09:43:51;9.30;;;6.47;;
4563;SDS011;2294;51.818;8.484;2023-01-19T09:46:26;6.57;;;4.27;;
4563;SDS011;2294;51.818;8.484;2023-01-19T09:48:58;5.60;;;5.07;;
4563;SDS011;2294;51.818;8.484;2023-01-19T09:51:31;5.93;;;3.93;;
4563;SDS011;2294;51.818;8.484;2023-01-19T09:54:03;8.00;;;5.60;;
4563;SDS011;2294;51.818;8.484;2023-01-19T09:56:36;7.80;;;5.33;;
4563;SDS011;2294;51.818;8.484;2023-01-19T09:59:10;6.67;;;5.07;;
4563;SDS011;2294;51.818;8.484;2023-01-19T10:01:48;16.30;;;10.57;;
4563;SDS011;2294;51.818;8.484;2023-01-19T10:04:30;13.63;;;6.50;;
4563;SDS011;2294;51.818;8.484;2023-01-19T10:07:05;11.10;;;8.27;;
4563;SDS011;2294;51.818;8.484;2023-01-19T10:09:40;13.97;;;8.90;;
4563;SDS011;2294;51.818;8.484;2023-01-19T10:12:20;12.20;;;8.17;;
4563;SDS011;2294;51.818;8.484;2023-01-19T10:14:59;17.87;;;7.67;;
4563;SDS011;2294;51.818;8.484;2023-01-19T10:17:41;16.97;;;11.00;;
4563;SDS011;2294;51.818;8.484;2023-01-19T10:20:18;9.80;;;6.17;;
4563;SDS011;2294;51.818;8.484;2023-01-19T10:22:51;14.77;;;9.10;;
4563;SDS011;2294;51.818;8.484;2023-01-19T10:25:19;14.50;;;10.57;;
4563;SDS011;2294;51.818;8.484;2023-01-19T10:27:48;20.73;;;10.80;;
4563;SDS011;2294;51.818;8.484;2023-01-19T10:30:15;17.23;;;11.00;;
4563;SDS011;2294;51.818;8.484;2023-01-19T10:32:48;15.23;;;9.80;;
4563;SDS011;2294;51.818;8.484;2023-01-19T10:35:17;13.10;;;9.07;;
4563;SDS011;2294;51.818;8.484;2023-01-19T10:37:48;16.77;;;10.10;;
4563;SDS011;2294;51.818;8.484;2023-01-19T10:40:18;18.60;;;9.30;;
4563;SDS011;2294;51.818;8.484;2023-01-19T10:42:52;18.10;;;9.47;;
4563;SDS011;2294;51.818;8.484;2023-01-19T10:45:20;13.00;;;9.70;;
4563;SDS011;2294;51.818;8.484;2023-01-19T10:47:50;14.10;;;10.27;;
4563;SDS011;2294;51.818;8.484;2023-01-19T10:50:22;13.20;;;8.23;;
4563;SDS011;2294;51.818;8.484;2023-01-19T10:52:51;19.67;;;11.00;;
4563;SDS011;2294;51.818;8.484;2023-01-19T10:55:23;21.97;;;13.40;;
4563;SDS011;2294;51.818;8.484;2023-01-19T10:57:52;16.67;;;11.00;;
4563;SDS011;2294;51.818;8.484;2023-01-19T11:03:20;13.13;;;10.30;;
4563;SDS011;2294;51.818;8.484;2023-01-19T11:05:48;20.10;;;13.00;;
4563;SDS011;2294;51.818;8.484;2023-01-19T11:08:20;16.07;;;11.03;;
4563;SDS011;2294;51.818;8.484;2023-01-19T11:10:51;16.30;;;11.13;;
4563;SDS011;2294;51.818;8.484;2023-01-19T11:13:21;17.53;;;10.33;;
4563;SDS011;2294;51.818;8.484;2023-01-19T11:15:49;20.40;;;9.67;;
4563;SDS011;2294;51.818;8.484;2023-01-19T11:18:23;18.83;;;9.80;;
4563;SDS011;2294;51.818;8.484;2023-01-19T11:20:55;25.17;;;12.30;;
4563;SDS011;2294;51.818;8.484;2023-01-19T11:23:24;21.70;;;11.40;;
4563;SDS011;2294;51.818;8.484;2023-01-19T11:25:54;16.77;;;10.70;;
4563;SDS011;2294;51.818;8.484;2023-01-19T11:28:25;23.37;;;13.63;;
4563;SDS011;2294;51.818;8.484;2023-01-19T11:30:54;15.47;;;8.80;;
4563;SDS011;2294;51.818;8.484;2023-01-19T11:33:25;14.13;;;9.73;;
4563;SDS011;2294;51.818;8.484;2023-01-19T11:36:03;14.57;;;9.50;;
4563;SDS011;2294;51.818;8.484;2023-01-19T11:38:34;17.33;;;9.87;;
4563;SDS011;2294;51.818;8.484;2023-01-19T11:41:07;12.57;;;8.40;;
4563;SDS011;2294;51.818;8.484;2023-01-19T11:43:43;16.03;;;7.60;;
4563;SDS011;2294;51.818;8.484;2023-01-19T11:46:12;23.07;;;10.93;;
4563;SDS011;2294;51.818;8.484;2023-01-19T11:48:41;14.83;;;9.73;;
4563;SDS011;2294;51.818;8.484;2023-01-19T11:51:12;25.30;;;12.40;;
4563;SDS011;2294;51.818;8.484;2023-01-19T11:53:42;18.83;;;10.83;;
4563;SDS011;2294;51.818;8.484;2023-01-19T11:56:13;16.17;;;10.40;;
4563;SDS011;2294;51.818;8.484;2023-01-19T11:58:41;22.83;;;10.00;;
4563;SDS011;2294;51.818;8.484;2023-01-19T12:01:13;31.07;;;9.90;;
4563;SDS011;2294;51.818;8.484;2023-01-19T12:03:48;19.10;;;8.13;;
4563;SDS011;2294;51.818;8.484;2023-01-19T12:06:21;15.70;;;10.13;;
4563;SDS011;2294;51.818;8.484;2023-01-19T12:08:52;14.13;;;9.10;;
4563;SDS011;2294;51.818;8.484;2023-01-19T12:11:21;24.53;;;8.30;;
4563;SDS011;2294;51.818;8.484;2023-01-19T12:13:54;21.40;;;10.70;;
4563;SDS011;2294;51.818;8.484;2023-01-19T12:16:21;22.17;;;10.00;;
4563;SDS011;2294;51.818;8.484;2023-01-19T12:18:54;23.57;;;10.67;;
4563;SDS011;2294;51.818;8.484;2023-01-19T12:21:24;19.20;;;10.90;;
4563;SDS011;2294;51.818;8.484;2023-01-19T12:23:53;27.77;;;14.10;;
4563;SDS011;2294;51.818;8.484;2023-01-19T12:26:30;28.00;;;12.63;;
4563;SDS011;2294;51.818;8.484;2023-01-19T12:29:07;20.70;;;9.40;;
4563;SDS011;2294;51.818;8.484;2023-01-19T12:31:37;19.77;;;11.87;;
4563;SDS011;2294;51.818;8.484;2023-01-19T12:37:04;19.40;;;10.17;;
4563;SDS011;2294;51.818;8.484;2023-01-19T12:39:32;27.80;;;13.00;;
4563;SDS011;2294;51.818;8.484;2023-01-19T12:42:09;26.53;;;14.10;;
4563;SDS011;2294;51.818;8.484;2023-01-19T12:44:39;30.90;;;14.70;;
4563;SDS011;2294;51.818;8.484;2023-01-19T12:47:17;30.40;;;15.57;;
4563;SDS011;2294;51.818;8.484;2023-01-19T12:49:48;29.60;;;16.97;;
4563;SDS011;2294;51.818;8.484;2023-01-19T12:52:21;37.70;;;14.77;;
4563;SDS011;2294;51.818;8.484;2023-01-19T12:55:02;31.90;;;14.80;;
4563;SDS011;2294;51.818;8.484;2023-01-19T12:57:55;28.53;;;14.37;;
4563;SDS011;2294;51.818;8.484;2023-01-19T13:00:30;33.83;;;16.00;;
4563;SDS011;2294;51.818;8.484;2023-01-19T13:03:03;26.67;;;12.07;;
4563;SDS011;2294;51.818;8.484;2023-01-19T13:05:50;19.47;;;13.30;;
4563;SDS011;2294;51.818;8.484;2023-01-19T13:08:23;23.83;;;12.70;;
4563;SDS011;2294;51.818;8.484;2023-01-19T13:13:41;27.93;;;15.20;;
4563;SDS011;2294;51.818;8.484;2023-01-19T13:19:15;23.97;;;13.67;;
4563;SDS011;2294;51.818;8.484;2023-01-19T13:21:48;29.87;;;16.77;;
4563;SDS011;2294;51.818;8.484;2023-01-19T13:24:16;22.30;;;12.40;;
4563;SDS011;2294;51.818;8.484;2023-01-19T13:26:52;23.37;;;13.77;;
4563;SDS011;2294;51.818;8.484;2023-01-19T13:29:27;25.37;;;15.73;;
4563;SDS011;2294;51.818;8.484;2023-01-19T13:31:58;33.00;;;18.20;;
4563;SDS011;2294;51.818;8.484;2023-01-19T13:34:27;42.47;;;20.20;;
4563;SDS011;2294;51.818;8.484;2023-01-19T13:36:58;29.90;;;17.50;;
4563;SDS011;2294;51.818;8.484;2023-01-19T13:39:26;37.40;;;20.10;;
4563;SDS011;2294;51.818;8.484;2023-01-19T13:41:56;35.90;;;17.30;;
4563;SDS011;2294;51.818;8.484;2023-01-19T13:44:26;35.43;;;18.30;;
4563;SDS011;2294;51.818;8.484;2023-01-19T13:46:55;41.47;;;17.07;;
4563;SDS011;2294;51.818;8.484;2023-01-19T13:49:25;31.50;;;17.00;;
4563;SDS011;2294;51.818;8.484;2023-01-19T13:52:05;25.63;;;13.30;;
4563;SDS011;2294;51.818;8.484;2023-01-19T13:54:36;34.07;;;16.57;;
4563;SDS011;2294;51.818;8.484;2023-01-19T13:57:19;26.00;;;15.47;;
4563;SDS011;2294;51.818;8.484;2023-01-19T14:00:04;26.70;;;13.17;;
4563;SDS011;2294;51.818;8.484;2023-01-19T14:02:36;29.73;;;16.27;;
4563;SDS011;2294;51.818;8.484;2023-01-19T14:05:12;30.77;;;16.93;;
4563;SDS011;2294;51.818;8.484;2023-01-19T14:07:41;25.80;;;15.17;;
4563;SDS011;2294;51.818;8.484;2023-01-19T14:10:11;31.97;;;19.20;;
4563;SDS011;2294;51.818;8.484;2023-01-19T14:12:40;29.13;;;16.17;;
4563;SDS011;2294;51.818;8.484;2023-01-19T14:15:08;34.30;;;16.67;;
4563;SDS011;2294;51.818;8.484;2023-01-19T14:17:38;29.00;;;15.57;;
4563;SDS011;2294;51.818;8.484;2023-01-19T14:20:26;35.60;;;15.50;;
4563;SDS011;2294;51.818;8.484;2023-01-19T14:22:55;35.23;;;17.10;;
4563;SDS011;2294;51.818;8.484;2023-01-19T14:25:25;32.80;;;16.57;;
4563;SDS011;2294;51.818;8.484;2023-01-19T14:30:52;33.17;;;19.23;;
4563;SDS011;2294;51.818;8.484;2023-01-19T14:33:32;28.30;;;15.80;;
4563;SDS011;2294;51.818;8.484;2023-01-19T14:36:07;26.50;;;13.77;;
4563;SDS011;2294;51.818;8.484;2023-01-19T14:38:48;27.17;;;15.60;;
4563;SDS011;2294;51.818;8.484;2023-01-19T14:41:20;40.40;;;18.50;;
4563;SDS011;2294;51.818;8.484;2023-01-19T14:43:50;35.07;;;17.27;;
4563;SDS011;2294;51.818;8.484;2023-01-19T14:46:20;32.80;;;18.27;;
4563;SDS011;2294;51.818;8.484;2023-01-19T14:48:49;29.67;;;15.93;;
4563;SDS011;2294;51.818;8.484;2023-01-19T14:51:18;34.60;;;19.70;;
4563;SDS011;2294;51.818;8.484;2023-01-19T14:53:50;31.40;;;17.50;;
4563;SDS011;2294;51.818;8.484;2023-01-19T14:56:23;30.10;;;16.53;;
4563;SDS011;2294;51.818;8.484;2023-01-19T14:58:51;30.73;;;17.70;;
4563;SDS011;2294;51.818;8.484;2023-01-19T15:01:18;35.13;;;17.57;;
4563;SDS011;2294;51.818;8.484;2023-01-19T15:03:45;34.60;;;17.17;;
4563;SDS011;2294;51.818;8.484;2023-01-19T15:06:12;36.37;;;16.40;;
4563;SDS011;2294;51.818;8.484;2023-01-19T15:08:41;32.10;;;19.33;;
4563;SDS011;2294;51.818;8.484;2023-01-19T15:11:11;32.27;;;18.00;;
4563;SDS011;2294;51.818;8.484;2023-01-19T15:13:43;37.07;;;18.43;;
4563;SDS011;2294;51.818;8.484;2023-01-19T15:16:10;28.43;;;15.07;;
4563;SDS011;2294;51.818;8.484;2023-01-19T15:18:36;37.43;;;15.80;;
4563;SDS011;2294;51.818;8.484;2023-01-19T15:21:04;32.13;;;16.70;;
4563;SDS011;2294;51.818;8.484;2023-01-19T15:23:31;32.53;;;16.87;;
4563;SDS011;2294;51.818;8.484;2023-01-19T15:25:58;33.63;;;17.50;;
4563;SDS011;2294;51.818;8.484;2023-01-19T15:28:28;29.87;;;18.40;;
4563;SDS011;2294;51.818;8.484;2023-01-19T15:30:56;32.93;;;17.57;;
4563;SDS011;2294;51.818;8.484;2023-01-19T15:33:25;27.70;;;16.07;;
4563;SDS011;2294;51.818;8.484;2023-01-19T15:35:54;35.20;;;15.73;;
4563;SDS011;2294;51.818;8.484;2023-01-19T15:38:21;32.70;;;16.93;;
4563;SDS011;2294;51.818;8.484;2023-01-19T15:40:48;37.07;;;16.43;;